createdAt,value
2018-10-06T00:00:52.100Z,16.83
2018-10-06T00:03:21.524Z,17.80
2018-10-06T00:05:50.828Z,18.87
2018-10-06T00:08:21.020Z,12.43
2018-10-06T00:10:50.310Z,14.80
2018-10-06T00:13:19.796Z,17.07
2018-10-06T00:15:49.140Z,21.17
2018-10-06T00:18:19.033Z,13.73
2018-10-06T00:20:48.447Z,16.63
2018-10-06T00:23:17.943Z,18.90
2018-10-06T00:25:47.348Z,17.50
2018-10-06T00:28:16.727Z,18.70
2018-10-06T00:30:46.164Z,18.10
2018-10-06T00:33:15.554Z,15.47
2018-10-06T00:35:44.984Z,16.40
2018-10-06T00:38:14.346Z,18.03
2018-10-06T00:40:43.668Z,15.43
2018-10-06T00:43:13.088Z,21.20
2018-10-06T00:45:42.400Z,19.10
2018-10-06T00:48:11.717Z,19.23
2018-10-06T00:50:41.075Z,20.80
2018-10-06T00:53:11.401Z,14.47
2018-10-06T00:55:40.931Z,12.43
2018-10-06T00:58:10.227Z,16.77
2018-10-06T01:00:40.663Z,17.57
2018-10-06T01:03:10.095Z,20.40
2018-10-06T01:05:39.451Z,20.27
2018-10-06T01:08:09.282Z,18.43
2018-10-06T01:10:38.675Z,18.47
2018-10-06T01:13:08.212Z,17.17
2018-10-06T01:15:37.534Z,15.70
2018-10-06T01:18:06.838Z,16.50
2018-10-06T01:20:36.186Z,19.17
2018-10-06T01:23:05.494Z,23.33
2018-10-06T01:25:34.778Z,17.40
2018-10-06T01:28:04.079Z,25.33
2018-10-06T01:30:33.422Z,17.10
2018-10-06T01:33:02.746Z,16.93
2018-10-06T01:35:32.067Z,13.70
2018-10-06T01:38:01.380Z,14.33
2018-10-06T01:40:31.057Z,12.27
2018-10-06T01:43:00.437Z,18.50
2018-10-06T01:45:29.761Z,25.13
2018-10-06T01:47:59.191Z,19.20
2018-10-06T01:50:28.606Z,22.37
2018-10-06T01:52:57.912Z,17.20
2018-10-06T01:55:27.205Z,15.27
2018-10-06T01:57:57.145Z,16.77
2018-10-06T02:00:26.430Z,18.33
2018-10-06T02:02:55.767Z,17.13
2018-10-06T02:05:25.060Z,18.57
2018-10-06T02:07:54.435Z,14.90
2018-10-06T02:10:23.716Z,17.93
2018-10-06T02:12:53.309Z,19.63
2018-10-06T02:15:22.603Z,17.33
2018-10-06T02:17:52.034Z,14.37
2018-10-06T02:20:21.364Z,14.67
2018-10-06T02:22:50.785Z,17.33
2018-10-06T02:25:20.189Z,15.07
2018-10-06T02:27:49.483Z,16.00
2018-10-06T02:30:18.872Z,16.63
2018-10-06T02:32:48.215Z,14.40
2018-10-06T02:35:17.523Z,15.13
2018-10-06T02:37:46.830Z,22.70
2018-10-06T02:40:16.244Z,15.90
2018-10-06T02:42:45.550Z,16.70
2018-10-06T02:45:14.843Z,16.20
2018-10-06T02:47:44.249Z,22.57
2018-10-06T02:50:13.550Z,16.60
2018-10-06T02:52:42.930Z,18.10
2018-10-06T02:55:12.343Z,19.80
2018-10-06T02:57:41.627Z,20.87
2018-10-06T03:00:11.036Z,21.80
2018-10-06T03:02:40.385Z,19.30
2018-10-06T03:05:09.770Z,17.30
2018-10-06T03:07:39.383Z,19.63
2018-10-06T03:10:08.736Z,22.10
2018-10-06T03:12:38.068Z,15.47
2018-10-06T03:15:07.434Z,17.63
2018-10-06T03:17:36.831Z,19.37
2018-10-06T03:20:06.268Z,17.80
2018-10-06T03:22:35.760Z,22.70
2018-10-06T03:25:05.090Z,16.73
2018-10-06T03:27:34.379Z,20.47
2018-10-06T03:30:03.731Z,18.80
2018-10-06T03:32:33.185Z,18.20
2018-10-06T03:35:02.484Z,13.30
2018-10-06T03:37:31.907Z,16.10
2018-10-06T03:40:01.252Z,18.37
2018-10-06T03:42:30.628Z,19.53
2018-10-06T03:45:00.099Z,18.33
2018-10-06T03:47:29.447Z,20.40
2018-10-06T03:49:58.743Z,21.60
2018-10-06T03:52:28.274Z,18.87
2018-10-06T03:54:57.618Z,18.77
2018-10-06T03:57:26.983Z,17.63
2018-10-06T03:59:56.310Z,17.37
2018-10-06T04:02:25.830Z,18.67
2018-10-06T04:04:55.162Z,17.60
2018-10-06T04:07:24.527Z,17.57
2018-10-06T04:09:53.830Z,16.77
2018-10-06T04:12:23.130Z,15.07
2018-10-06T04:14:52.525Z,14.93
2018-10-06T04:17:21.981Z,20.90
2018-10-06T04:19:51.402Z,23.33
2018-10-06T04:22:21.014Z,17.27
2018-10-06T04:24:50.338Z,15.80
2018-10-06T04:27:19.612Z,19.23
2018-10-06T04:29:48.946Z,17.03
2018-10-06T04:32:18.229Z,20.13
2018-10-06T04:34:47.583Z,15.20
2018-10-06T04:37:16.910Z,21.53
2018-10-06T04:39:46.248Z,18.57
2018-10-06T04:42:15.544Z,21.90
2018-10-06T04:44:44.951Z,20.53
2018-10-06T04:47:14.351Z,21.73
2018-10-06T04:49:43.644Z,25.00
2018-10-06T04:52:12.992Z,20.90
2018-10-06T04:54:42.412Z,17.53
2018-10-06T04:57:11.847Z,16.70
2018-10-06T04:59:41.325Z,16.67
2018-10-06T05:02:10.740Z,18.07
2018-10-06T05:04:40.036Z,25.30
2018-10-06T05:07:09.571Z,21.33
2018-10-06T05:09:39.045Z,20.70
2018-10-06T05:12:08.758Z,17.20
2018-10-06T05:14:38.048Z,16.70
2018-10-06T05:17:07.346Z,21.93
2018-10-06T05:19:36.637Z,14.03
2018-10-06T05:22:06.009Z,17.43
2018-10-06T05:24:35.415Z,15.33
2018-10-06T05:27:04.702Z,17.03
2018-10-06T05:29:34.126Z,15.87
2018-10-06T05:32:03.350Z,17.87
2018-10-06T05:34:32.773Z,16.53
2018-10-06T05:37:02.100Z,22.17
2018-10-06T05:39:31.441Z,21.60
2018-10-06T05:42:00.832Z,16.90
2018-10-06T05:44:30.127Z,17.10
2018-10-06T05:46:59.417Z,20.87
2018-10-06T05:49:28.789Z,16.70
2018-10-06T05:51:58.355Z,26.37
2018-10-06T05:54:27.641Z,21.57
2018-10-06T05:56:57.127Z,19.23
2018-10-06T05:59:26.418Z,19.07
2018-10-06T06:01:55.751Z,14.83
2018-10-06T06:04:25.073Z,17.50
2018-10-06T06:06:54.387Z,17.47
2018-10-06T06:09:23.946Z,18.47
2018-10-06T06:11:53.269Z,17.23
2018-10-06T06:14:22.736Z,21.00
2018-10-06T06:16:52.289Z,14.60
2018-10-06T06:19:21.702Z,16.47
2018-10-06T06:21:51.021Z,13.93
2018-10-06T06:24:20.310Z,19.70
2018-10-06T06:26:49.614Z,18.47
2018-10-06T06:29:18.923Z,17.17
2018-10-06T06:31:48.236Z,15.40
2018-10-06T06:34:17.856Z,23.20
2018-10-06T06:36:47.174Z,22.53
2018-10-06T06:39:16.455Z,16.53
2018-10-06T06:41:46.112Z,18.50
2018-10-06T06:44:15.514Z,18.93
2018-10-06T06:46:44.745Z,18.00
2018-10-06T06:49:14.028Z,17.07
2018-10-06T06:51:43.345Z,18.90
2018-10-06T06:54:12.896Z,20.93
2018-10-06T06:56:42.212Z,13.73
2018-10-06T06:59:11.630Z,12.13
2018-10-06T07:01:41.079Z,18.37
2018-10-06T07:04:10.493Z,19.57
2018-10-06T07:06:39.874Z,19.27
2018-10-06T07:09:09.250Z,17.07
2018-10-06T07:11:38.567Z,23.43
2018-10-06T07:14:07.934Z,16.90
2018-10-06T07:16:37.303Z,16.30
2018-10-06T07:19:06.834Z,12.63
2018-10-06T07:21:36.172Z,19.60
2018-10-06T07:24:05.518Z,9.30
2018-10-06T07:26:34.938Z,16.30
2018-10-06T07:29:04.325Z,14.60
2018-10-06T07:31:33.841Z,12.93
2018-10-06T07:34:03.274Z,13.60
2018-10-06T07:36:32.777Z,12.40
2018-10-06T07:39:02.104Z,12.53
2018-10-06T07:41:31.398Z,14.03
2018-10-06T07:44:00.733Z,11.70
2018-10-06T07:46:30.080Z,13.70
2018-10-06T07:48:59.634Z,18.70
2018-10-06T07:51:29.072Z,10.47
2018-10-06T07:53:58.389Z,18.97
2018-10-06T07:56:27.685Z,14.30
2018-10-06T07:58:57.007Z,15.17
2018-10-06T08:01:26.324Z,13.50
2018-10-06T08:03:55.810Z,16.33
2018-10-06T08:06:25.240Z,14.80
2018-10-06T08:08:54.489Z,14.40
2018-10-06T08:11:24.021Z,14.30
2018-10-06T08:13:53.321Z,18.30
2018-10-06T08:16:22.621Z,18.73
2018-10-06T08:18:52.190Z,16.80
2018-10-06T08:21:21.504Z,14.00
2018-10-06T08:23:51.136Z,20.33
2018-10-06T08:26:21.039Z,12.70
2018-10-06T08:28:50.384Z,13.07
2018-10-06T08:31:19.792Z,11.97
2018-10-06T08:33:49.156Z,11.17
2018-10-06T08:36:18.471Z,20.13
2018-10-06T08:38:47.792Z,25.03
2018-10-06T08:41:17.262Z,17.47
2018-10-06T08:43:46.880Z,25.07
2018-10-06T08:46:16.195Z,18.53
2018-10-06T08:48:45.531Z,15.27
2018-10-06T08:51:15.041Z,35.53
2018-10-06T08:53:44.361Z,24.50
2018-10-06T08:56:13.878Z,15.40
2018-10-06T08:58:43.121Z,26.77
2018-10-06T09:01:12.503Z,16.80
2018-10-06T09:03:41.901Z,15.07
2018-10-06T09:06:11.442Z,14.93
2018-10-06T09:08:40.806Z,20.53
2018-10-06T09:11:10.623Z,17.03
2018-10-06T09:13:39.975Z,12.03
2018-10-06T09:16:09.368Z,18.13
2018-10-06T09:18:38.786Z,17.23
2018-10-06T09:21:08.302Z,23.13
2018-10-06T09:23:37.646Z,14.10
2018-10-06T09:26:07.989Z,15.00
2018-10-06T09:28:37.383Z,16.93
2018-10-06T09:31:07.601Z,18.73
2018-10-06T09:33:37.031Z,15.83
2018-10-06T09:36:07.623Z,13.63
2018-10-06T09:38:37.110Z,17.53
2018-10-06T09:41:07.812Z,16.13
2018-10-06T09:43:37.152Z,12.90
2018-10-06T09:46:06.750Z,16.17
2018-10-06T09:48:36.112Z,24.40
2018-10-06T09:51:05.964Z,16.27
2018-10-06T09:53:35.620Z,15.67
2018-10-06T09:56:06.661Z,12.97
2018-10-06T09:58:37.470Z,14.93
2018-10-06T10:01:13.282Z,18.43
2018-10-06T10:03:49.348Z,19.10
2018-10-06T10:06:18.875Z,20.70
2018-10-06T10:08:48.359Z,19.73
2018-10-06T10:11:17.765Z,17.83
2018-10-06T10:13:47.114Z,18.23
2018-10-06T10:16:17.421Z,20.00
2018-10-06T10:18:47.130Z,27.43
2018-10-06T10:21:16.511Z,18.40
2018-10-06T10:23:46.782Z,16.90
2018-10-06T10:26:16.149Z,17.83
2018-10-06T10:28:45.882Z,14.37
2018-10-06T10:31:15.225Z,19.70
2018-10-06T10:33:44.756Z,17.20
2018-10-06T10:36:14.209Z,19.00
2018-10-06T10:38:43.643Z,24.80
2018-10-06T10:41:13.173Z,18.13
2018-10-06T10:43:46.433Z,20.20
2018-10-06T10:46:16.000Z,17.90
2018-10-06T10:48:45.575Z,16.57
2018-10-06T10:51:16.323Z,19.60
2018-10-06T10:53:47.133Z,14.90
2018-10-06T10:56:18.069Z,18.90
2018-10-06T10:58:48.526Z,17.30
2018-10-06T11:01:18.811Z,21.77
2018-10-06T11:03:49.683Z,13.70
2018-10-06T11:06:18.866Z,15.73
2018-10-06T11:08:48.135Z,20.83
2018-10-06T11:11:20.307Z,21.37
2018-10-06T11:13:49.490Z,20.83
2018-10-06T11:16:18.529Z,15.53
2018-10-06T11:18:48.047Z,23.63
2018-10-06T11:21:17.524Z,16.43
2018-10-06T11:23:46.859Z,19.97
2018-10-06T11:26:16.417Z,17.10
2018-10-06T11:28:46.177Z,16.77
2018-10-06T11:31:15.613Z,14.00
2018-10-06T11:33:45.062Z,15.00
2018-10-06T11:36:14.467Z,19.67
2018-10-06T11:38:44.072Z,15.77
2018-10-06T11:41:13.416Z,16.67
2018-10-06T11:43:42.749Z,15.70
2018-10-06T11:46:12.057Z,13.63
2018-10-06T11:48:41.378Z,13.33
2018-10-06T11:51:10.835Z,13.30
2018-10-06T11:53:40.245Z,14.43
2018-10-06T11:56:09.684Z,10.17
2018-10-06T11:58:39.097Z,11.47
2018-10-06T12:01:08.727Z,12.67
2018-10-06T12:03:38.120Z,15.70
2018-10-06T12:06:07.469Z,9.57
2018-10-06T12:08:36.916Z,16.23
2018-10-06T12:11:06.486Z,16.97
2018-10-06T12:13:37.898Z,14.53
2018-10-06T12:16:07.565Z,12.50
2018-10-06T12:18:37.159Z,12.20
2018-10-06T12:21:06.591Z,17.70
2018-10-06T12:23:36.046Z,13.30
2018-10-06T12:26:05.412Z,11.50
2018-10-06T12:28:35.479Z,15.03
2018-10-06T12:31:05.304Z,10.33
2018-10-06T12:33:34.749Z,15.43
2018-10-06T12:36:04.243Z,16.13
2018-10-06T12:38:33.678Z,13.90
2018-10-06T12:41:03.015Z,14.30
2018-10-06T12:43:32.506Z,14.90
2018-10-06T12:46:01.827Z,17.50
2018-10-06T12:48:31.216Z,14.23
2018-10-06T12:51:00.659Z,18.93
2018-10-06T12:53:30.115Z,10.83
2018-10-06T12:55:59.469Z,8.80
2018-10-06T12:58:28.964Z,10.67
2018-10-06T13:00:58.560Z,9.77
2018-10-06T13:03:28.020Z,10.60
2018-10-06T13:05:58.009Z,12.60
2018-10-06T13:08:27.444Z,9.03
2018-10-06T13:10:56.825Z,9.50
2018-10-06T13:13:26.199Z,9.17
2018-10-06T13:15:55.509Z,12.20
2018-10-06T13:18:24.832Z,8.97
2018-10-06T13:20:54.149Z,9.73
2018-10-06T13:23:23.502Z,10.30
2018-10-06T13:25:52.804Z,13.17
2018-10-06T13:28:22.268Z,9.93
2018-10-06T13:30:51.601Z,10.03
2018-10-06T13:33:20.986Z,14.70
2018-10-06T13:35:52.336Z,9.67
2018-10-06T13:38:21.749Z,10.10
2018-10-06T13:40:51.080Z,13.70
2018-10-06T13:43:21.018Z,11.43
2018-10-06T13:45:50.369Z,11.10
2018-10-06T13:48:19.849Z,6.63
2018-10-06T13:50:49.221Z,7.57
2018-10-06T13:53:18.644Z,11.03
2018-10-06T13:55:48.052Z,9.03
2018-10-06T13:58:17.573Z,11.57
2018-10-06T14:00:47.110Z,10.47
2018-10-06T14:03:16.923Z,7.70
2018-10-06T14:05:46.350Z,9.93
2018-10-06T14:08:15.724Z,11.87
2018-10-06T14:10:45.211Z,5.23
2018-10-06T14:13:14.677Z,9.00
2018-10-06T14:15:44.084Z,7.47
2018-10-06T14:18:13.481Z,7.77
2018-10-06T14:20:42.901Z,7.93
2018-10-06T14:23:12.333Z,11.53
2018-10-06T14:25:41.836Z,9.13
2018-10-06T14:28:11.443Z,5.47
2018-10-06T14:30:40.845Z,7.20
2018-10-06T14:33:10.435Z,7.80
2018-10-06T14:35:39.807Z,8.27
2018-10-06T14:38:09.225Z,8.20
2018-10-06T14:40:38.735Z,7.57
2018-10-06T14:43:08.356Z,11.30
2018-10-06T14:45:37.811Z,7.30
2018-10-06T14:48:07.238Z,10.90
2018-10-06T14:50:36.620Z,6.97
2018-10-06T14:53:06.461Z,10.40
2018-10-06T14:55:35.829Z,6.80
2018-10-06T14:58:05.484Z,11.00
2018-10-06T15:00:34.832Z,8.87
2018-10-06T15:03:04.206Z,9.27
2018-10-06T15:05:33.558Z,4.87
2018-10-06T15:08:03.936Z,5.80
2018-10-06T15:10:33.309Z,6.60
2018-10-06T15:13:02.903Z,5.17
2018-10-06T15:15:32.425Z,6.63
2018-10-06T15:18:01.785Z,4.90
2018-10-06T15:20:31.110Z,5.87
2018-10-06T15:23:00.455Z,6.90
2018-10-06T15:25:29.915Z,3.40
2018-10-06T15:27:59.452Z,10.20
2018-10-06T15:30:28.859Z,5.00
2018-10-06T15:32:58.561Z,6.10
2018-10-06T15:35:28.009Z,9.77
2018-10-06T15:37:57.477Z,9.40
2018-10-06T15:40:27.553Z,4.97
2018-10-06T15:42:57.139Z,4.07
2018-10-06T15:45:26.454Z,5.47
2018-10-06T15:47:55.923Z,10.00
2018-10-06T15:50:25.297Z,5.23
2018-10-06T15:52:54.915Z,4.23
2018-10-06T15:55:24.580Z,4.20
2018-10-06T15:57:54.059Z,4.53
2018-10-06T16:00:23.605Z,4.50
2018-10-06T16:02:53.051Z,9.33
2018-10-06T16:05:22.552Z,7.27
2018-10-06T16:07:51.895Z,9.80
2018-10-06T16:10:21.269Z,6.30
2018-10-06T16:12:50.732Z,5.43
2018-10-06T16:15:20.065Z,9.67
2018-10-06T16:17:49.639Z,5.80
2018-10-06T16:20:18.995Z,4.83
2018-10-06T16:22:48.348Z,7.40
2018-10-06T16:25:17.759Z,6.03
2018-10-06T16:27:47.089Z,5.70
2018-10-06T16:30:16.533Z,7.07
2018-10-06T16:32:45.849Z,8.03
2018-10-06T16:35:15.205Z,8.97
2018-10-06T16:37:44.739Z,4.90
2018-10-06T16:40:14.149Z,8.07
2018-10-06T16:42:43.678Z,13.40
2018-10-06T16:45:13.113Z,12.80
2018-10-06T16:47:42.593Z,7.83
2018-10-06T16:50:12.161Z,10.07
2018-10-06T16:52:41.781Z,7.50
2018-10-06T16:55:11.206Z,10.47
2018-10-06T16:57:40.548Z,15.97
2018-10-06T17:00:09.937Z,22.50
2018-10-06T17:02:39.250Z,24.83
2018-10-06T17:05:08.627Z,17.33
2018-10-06T17:07:38.021Z,13.67
2018-10-06T17:10:07.824Z,10.23
2018-10-06T17:12:37.888Z,11.67
2018-10-06T17:15:08.085Z,10.23
2018-10-06T17:17:37.469Z,5.43
2018-10-06T17:20:07.050Z,8.00
2018-10-06T17:22:36.371Z,12.00
2018-10-06T17:25:05.832Z,8.10
2018-10-06T17:27:35.268Z,8.37
2018-10-06T17:30:05.017Z,8.37
2018-10-06T17:32:34.471Z,18.53
2018-10-06T17:35:03.815Z,14.33
2018-10-06T17:37:33.393Z,6.60
2018-10-06T17:40:02.880Z,7.40
2018-10-06T17:42:32.302Z,6.20
2018-10-06T17:45:01.677Z,6.87
2018-10-06T17:47:31.066Z,5.13
2018-10-06T17:50:00.567Z,7.07
2018-10-06T17:52:29.950Z,9.27
2018-10-06T17:54:59.436Z,7.07
2018-10-06T17:57:28.763Z,18.70
2018-10-06T17:59:58.584Z,8.80
2018-10-06T18:02:30.450Z,10.43
2018-10-06T18:05:00.062Z,14.67
2018-10-06T18:07:29.499Z,13.53
2018-10-06T18:09:59.184Z,15.53
2018-10-06T18:12:28.888Z,12.57
2018-10-06T18:15:05.361Z,11.33
2018-10-06T18:17:35.200Z,14.30
2018-10-06T18:20:05.695Z,11.03
2018-10-06T18:22:35.175Z,15.23
2018-10-06T18:25:04.792Z,12.90
2018-10-06T18:27:34.375Z,13.60
2018-10-06T18:30:03.424Z,16.17
2018-10-06T18:32:32.855Z,12.70
2018-10-06T18:35:02.433Z,15.07
2018-10-06T18:37:31.731Z,15.77
2018-10-06T18:40:01.051Z,18.23
2018-10-06T18:42:30.400Z,12.07
2018-10-06T18:44:59.985Z,22.23
2018-10-06T18:47:29.374Z,12.10
2018-10-06T18:49:58.740Z,12.20
2018-10-06T18:52:28.103Z,14.40
2018-10-06T18:54:57.568Z,14.60
2018-10-06T18:57:26.988Z,24.77
2018-10-06T18:59:56.388Z,15.97
2018-10-06T19:02:25.666Z,12.37
2018-10-06T19:04:55.073Z,14.87
2018-10-06T19:07:24.396Z,17.00
2018-10-06T19:09:53.846Z,19.77
2018-10-06T19:12:23.145Z,22.30
2018-10-06T19:14:52.620Z,14.03
2018-10-06T19:17:21.971Z,11.67
2018-10-06T19:19:51.273Z,17.33
2018-10-06T19:22:20.696Z,20.13
2018-10-06T19:24:50.283Z,18.40
2018-10-06T19:27:19.590Z,14.30
2018-10-06T19:29:48.890Z,20.13
2018-10-06T19:32:18.207Z,19.10
2018-10-06T19:34:47.550Z,13.93
2018-10-06T19:37:16.892Z,14.13
2018-10-06T19:39:46.283Z,15.13
2018-10-06T19:42:15.749Z,19.13
2018-10-06T19:44:45.125Z,13.33
2018-10-06T19:47:14.536Z,20.03
2018-10-06T19:49:43.999Z,14.80
2018-10-06T19:52:13.289Z,21.87
2018-10-06T19:54:42.578Z,18.20
2018-10-06T19:57:12.054Z,19.37
2018-10-06T19:59:41.462Z,17.50
2018-10-06T20:02:10.854Z,10.57
2018-10-06T20:04:40.284Z,13.80
2018-10-06T20:07:10.171Z,14.97
2018-10-06T20:09:39.663Z,11.90
2018-10-06T20:12:09.047Z,13.10
2018-10-06T20:14:38.422Z,14.40
2018-10-06T20:17:09.053Z,18.47
2018-10-06T20:19:38.386Z,14.33
2018-10-06T20:22:10.399Z,16.30
2018-10-06T20:24:39.771Z,16.93
2018-10-06T20:27:09.497Z,28.57
2018-10-06T20:29:39.085Z,23.40
2018-10-06T20:32:08.453Z,28.83
2018-10-06T20:34:37.881Z,30.83
2018-10-06T20:37:07.295Z,22.20
2018-10-06T20:39:36.666Z,23.77
2018-10-06T20:42:06.042Z,16.20
2018-10-06T20:44:35.318Z,20.10
2018-10-06T20:47:04.585Z,16.77
2018-10-06T20:49:33.991Z,19.13
2018-10-06T20:52:03.419Z,16.40
2018-10-06T20:54:32.833Z,14.93
2018-10-06T20:57:02.477Z,17.43
2018-10-06T20:59:31.772Z,19.87
2018-10-06T21:02:01.128Z,18.70
2018-10-06T21:04:30.372Z,16.73
2018-10-06T21:06:59.770Z,19.53
2018-10-06T21:09:29.042Z,18.63
2018-10-06T21:11:58.346Z,17.70
2018-10-06T21:14:27.819Z,16.37
2018-10-06T21:16:57.132Z,13.20
2018-10-06T21:19:26.774Z,21.17
2018-10-06T21:21:56.149Z,15.40
2018-10-06T21:24:25.467Z,17.10
2018-10-06T21:26:54.762Z,15.73
2018-10-06T21:29:24.223Z,18.67
2018-10-06T21:31:53.641Z,16.30
2018-10-06T21:34:22.958Z,16.43
2018-10-06T21:36:52.243Z,19.60
2018-10-06T21:39:21.524Z,19.10
2018-10-06T21:41:50.965Z,19.10
2018-10-06T21:44:20.341Z,16.80
2018-10-06T21:46:49.720Z,16.10
2018-10-06T21:49:19.004Z,14.57
2018-10-06T21:51:48.342Z,18.87
2018-10-06T21:54:17.629Z,15.13
2018-10-06T21:56:47.147Z,17.67
2018-10-06T21:59:16.563Z,12.77
2018-10-06T22:01:45.874Z,20.03
2018-10-06T22:04:15.331Z,13.00
2018-10-06T22:06:44.618Z,14.27
2018-10-06T22:09:14.014Z,15.73
2018-10-06T22:11:43.342Z,17.93
2018-10-06T22:14:12.728Z,16.90
2018-10-06T22:16:42.027Z,17.37
2018-10-06T22:19:11.536Z,20.17
2018-10-06T22:21:40.836Z,22.63
2018-10-06T22:24:10.152Z,18.93
2018-10-06T22:26:39.480Z,17.87
2018-10-06T22:29:08.810Z,17.30
2018-10-06T22:31:38.112Z,18.03
2018-10-06T22:34:07.596Z,17.43
2018-10-06T22:36:36.979Z,38.43
2018-10-06T22:39:07.821Z,19.37
2018-10-06T22:41:37.443Z,19.97
2018-10-06T22:44:06.822Z,17.90
2018-10-06T22:46:36.120Z,19.50
2018-10-06T22:49:05.638Z,21.60
2018-10-06T22:51:35.157Z,19.97
2018-10-06T22:54:04.559Z,28.10
2018-10-06T22:56:33.946Z,29.13
2018-10-06T22:59:03.290Z,25.30
2018-10-06T23:01:32.622Z,25.20
2018-10-06T23:04:02.012Z,37.93
2018-10-06T23:06:31.334Z,23.80
2018-10-06T23:09:00.622Z,21.37
2018-10-06T23:11:29.951Z,21.30
2018-10-06T23:13:59.372Z,25.40
2018-10-06T23:16:28.648Z,21.27
2018-10-06T23:18:58.043Z,18.87
2018-10-06T23:21:27.560Z,25.20
2018-10-06T23:23:58.008Z,20.30
2018-10-06T23:26:27.689Z,17.33
2018-10-06T23:28:56.969Z,21.47
2018-10-06T23:31:26.313Z,27.27
2018-10-06T23:33:55.630Z,23.23
2018-10-06T23:36:25.181Z,22.73
2018-10-06T23:38:54.594Z,21.07
2018-10-06T23:41:23.890Z,21.47
2018-10-06T23:43:53.197Z,21.83
2018-10-06T23:46:22.566Z,21.80
2018-10-06T23:48:51.862Z,23.20
2018-10-06T23:51:21.247Z,23.73
2018-10-06T23:53:50.611Z,26.50
2018-10-06T23:56:19.911Z,21.70
2018-10-06T23:58:49.399Z,28.23
